Time;durP1;ratioP1;P1;durP2;ratioP2;P2;SDS_P1;SDS_P2;PMS_P1;PMS_P2;Temp;Humidity;BMP_temperature;BMP_pressure;BME280_temperature;BME280_humidity;BME280_pressure;Samples;Min_cycle;Max_cycle;Signal;HPM_P1;HPM_P2
2021/08/25 00:01:59;;;;;;;8.88;4.90;;;11.00;99.90;;;;;;5056596;28;20029;-68
2021/08/25 00:04:25;;;;;;;9.27;4.88;;;11.00;99.90;;;;;;5055576;28;20021;-68
2021/08/25 00:06:50;;;;;;;11.02;5.78;;;11.00;99.90;;;;;;5056237;28;20029;-68
2021/08/25 00:09:16;;;;;;;8.77;4.78;;;10.90;99.90;;;;;;5056490;28;20083;-68
2021/08/25 00:11:42;;;;;;;7.50;5.10;;;10.90;99.90;;;;;;5056417;28;20033;-68
2021/08/25 00:14:07;;;;;;;8.05;4.80;;;10.90;99.90;;;;;;5054908;28;20021;-68
2021/08/25 00:16:33;;;;;;;9.95;5.30;;;10.90;99.90;;;;;;5055979;28;20067;-68
2021/08/25 00:18:59;;;;;;;9.48;4.90;;;10.90;99.90;;;;;;5055943;28;20409;-68
2021/08/25 00:21:24;;;;;;;9.40;4.65;;;10.90;99.90;;;;;;5056260;28;20029;-68
2021/08/25 00:23:50;;;;;;;10.60;5.38;;;10.90;99.90;;;;;;5056186;28;20076;-68
2021/08/25 00:26:15;;;;;;;8.73;4.43;;;10.90;99.90;;;;;;5055586;28;20056;-68
2021/08/25 00:28:41;;;;;;;11.07;5.20;;;10.90;99.90;;;;;;5056076;28;20082;-68
2021/08/25 00:31:06;;;;;;;9.20;5.53;;;10.90;99.90;;;;;;5054573;28;20046;-68
2021/08/25 00:33:32;;;;;;;9.00;4.95;;;10.80;99.90;;;;;;5055728;28;20028;-68
2021/08/25 00:35:57;;;;;;;12.25;6.28;;;10.80;99.90;;;;;;5055665;28;20040;-68
2021/08/25 00:38:23;;;;;;;12.00;5.55;;;10.80;99.90;;;;;;5055145;28;20053;-68
2021/08/25 00:40:48;;;;;;;10.63;5.05;;;10.80;99.90;;;;;;5055868;28;20047;-68
2021/08/25 00:43:14;;;;;;;8.18;5.15;;;10.70;99.90;;;;;;5054083;28;20021;-68
2021/08/25 00:45:42;;;;;;;7.82;4.72;;;10.70;99.90;;;;;;5037917;28;20017;-68
2021/08/25 00:48:09;;;;;;;12.20;5.55;;;10.70;99.90;;;;;;5055185;28;20025;-68
2021/08/25 00:50:35;;;;;;;8.77;5.20;;;10.70;99.90;;;;;;5054689;28;20075;-68
2021/08/25 00:53:03;;;;;;;10.27;5.75;;;10.60;99.90;;;;;;5055655;28;20086;-69
2021/08/25 00:55:31;;;;;;;11.00;5.70;;;10.60;99.90;;;;;;5055648;28;20055;-68
2021/08/25 00:57:59;;;;;;;9.65;5.57;;;10.50;99.90;;;;;;5053888;28;20032;-68
2021/08/25 01:00:25;;;;;;;9.80;5.68;;;10.60;99.90;;;;;;5054266;28;20025;-68
2021/08/25 01:03:14;;;;;;;8.30;5.32;;;10.50;99.90;;;;;;5055040;28;20354;-68
2021/08/25 01:05:42;;;;;;;9.25;5.25;;;10.50;99.90;;;;;;5054765;28;20025;-68
2021/08/25 01:08:10;;;;;;;9.57;5.40;;;10.50;99.90;;;;;;5054984;28;20446;-68
2021/08/25 01:10:36;;;;;;;8.95;5.38;;;10.50;99.90;;;;;;5055288;28;20021;-68
2021/08/25 01:13:06;;;;;;;8.55;5.07;;;10.40;99.90;;;;;;5054693;28;20029;-68
2021/08/25 01:15:34;;;;;;;9.20;5.68;;;10.40;99.90;;;;;;5055218;28;20028;-68
2021/08/25 01:18:03;;;;;;;9.07;4.95;;;10.30;99.90;;;;;;5055070;28;20028;-68
2021/08/25 01:20:30;;;;;;;7.57;4.88;;;10.30;99.90;;;;;;5055078;28;20112;-68
2021/08/25 01:22:57;;;;;;;11.05;5.50;;;10.30;99.90;;;;;;5055050;28;20058;-68
2021/08/25 01:25:25;;;;;;;9.25;5.07;;;10.30;99.90;;;;;;5055052;28;20440;-68
2021/08/25 01:27:56;;;;;;;9.27;5.13;;;10.20;99.90;;;;;;5054668;28;20029;-68
2021/08/25 01:30:25;;;;;;;8.50;5.07;;;10.20;99.90;;;;;;5054600;28;20017;-68
2021/08/25 01:32:50;;;;;;;8.88;4.90;;;10.20;99.90;;;;;;5053361;28;20057;-68
2021/08/25 01:35:16;;;;;;;10.50;5.22;;;10.20;99.90;;;;;;5054778;28;20049;-68
2021/08/25 01:37:42;;;;;;;9.98;5.95;;;10.10;99.90;;;;;;5054265;28;20457;-68
2021/08/25 01:40:08;;;;;;;8.40;5.55;;;10.10;99.90;;;;;;5053582;28;20096;-68
2021/08/25 01:42:34;;;;;;;9.60;5.88;;;10.10;99.90;;;;;;5054672;28;20032;-68
2021/08/25 01:44:59;;;;;;;11.82;5.68;;;10.10;99.90;;;;;;5054089;28;20021;-68
2021/08/25 01:47:25;;;;;;;8.50;5.25;;;10.10;99.90;;;;;;5054317;28;20037;-68
2021/08/25 01:49:53;;;;;;;9.40;5.28;;;10.00;99.90;;;;;;5054589;28;20032;-68
2021/08/25 01:52:18;;;;;;;11.15;5.70;;;10.00;99.90;;;;;;5053292;28;20052;-68
2021/08/25 01:54:46;;;;;;;8.80;5.78;;;10.00;99.90;;;;;;5054451;28;20033;-68
2021/08/25 01:57:11;;;;;;;9.55;5.00;;;9.90;99.90;;;;;;5054374;28;20059;-68
2021/08/25 01:59:37;;;;;;;12.00;6.55;;;9.90;99.90;;;;;;5054357;28;20029;-68
2021/08/25 02:02:03;;;;;;;10.05;5.60;;;9.90;99.90;;;;;;5054106;28;20024;-68
2021/08/25 02:04:29;;;;;;;11.30;5.95;;;9.90;99.90;;;;;;5053772;28;20455;-68
2021/08/25 02:06:55;;;;;;;10.02;5.90;;;9.90;99.90;;;;;;5052785;28;20031;-68
2021/08/25 02:09:21;;;;;;;10.13;5.97;;;9.80;99.90;;;;;;5053710;28;20027;-68
2021/08/25 02:11:47;;;;;;;11.68;6.20;;;9.80;99.90;;;;;;5053984;28;20024;-68
2021/08/25 02:14:12;;;;;;;9.45;5.68;;;9.80;99.90;;;;;;5053002;28;20029;-68
2021/08/25 02:16:38;;;;;;;9.93;6.00;;;9.80;99.90;;;;;;5054124;28;20079;-68
2021/08/25 02:19:04;;;;;;;9.57;5.97;;;9.80;99.90;;;;;;5053516;28;20087;-69
2021/08/25 02:21:29;;;;;;;10.02;5.93;;;9.80;99.90;;;;;;5052640;28;20055;-68
2021/08/25 02:23:55;;;;;;;9.32;6.20;;;9.70;99.90;;;;;;5054039;28;20419;-68
2021/08/25 02:26:21;;;;;;;13.35;7.50;;;9.70;99.90;;;;;;5053479;28;20017;-68
2021/08/25 02:28:49;;;;;;;12.07;7.05;;;9.70;99.90;;;;;;5053730;28;20036;-68
2021/08/25 02:31:15;;;;;;;13.32;7.70;;;9.70;99.90;;;;;;5053971;28;20040;-68
2021/08/25 02:33:41;;;;;;;11.35;6.55;;;9.70;99.90;;;;;;5053957;28;20045;-68
2021/08/25 02:36:08;;;;;;;10.57;6.20;;;9.70;99.90;;;;;;5053646;28;20036;-68
2021/08/25 02:38:35;;;;;;;11.27;6.15;;;9.70;99.90;;;;;;5053172;28;20570;-68
2021/08/25 02:41:02;;;;;;;10.32;6.43;;;9.70;99.90;;;;;;5053865;28;20025;-68
2021/08/25 02:43:28;;;;;;;11.00;6.30;;;9.60;99.90;;;;;;5053811;28;20071;-68
2021/08/25 02:45:53;;;;;;;10.60;6.65;;;9.60;99.90;;;;;;5053546;28;20025;-68
2021/08/25 02:48:19;;;;;;;11.80;5.95;;;9.60;99.90;;;;;;5053491;28;20059;-68
2021/08/25 02:50:44;;;;;;;12.90;6.90;;;9.60;99.90;;;;;;5053726;28;20481;-68
2021/08/25 02:53:11;;;;;;;9.98;6.05;;;9.50;99.90;;;;;;5053157;28;20041;-68
2021/08/25 02:55:36;;;;;;;9.75;6.20;;;9.50;99.90;;;;;;5053475;28;20075;-68
2021/08/25 02:58:02;;;;;;;11.18;6.75;;;9.50;99.90;;;;;;5053080;28;20025;-68
2021/08/25 03:00:27;;;;;;;10.35;6.30;;;9.50;99.90;;;;;;5053410;28;20459;-68
2021/08/25 03:02:53;;;;;;;10.88;6.93;;;9.50;99.90;;;;;;5053389;28;20481;-68
2021/08/25 03:05:19;;;;;;;13.70;7.75;;;9.50;99.90;;;;;;5053651;28;20473;-68
2021/08/25 03:07:44;;;;;;;11.40;6.57;;;9.40;99.90;;;;;;5053635;28;20033;-68
2021/08/25 03:10:10;;;;;;;10.63;6.90;;;9.40;99.90;;;;;;5053346;28;20029;-68
2021/08/25 03:12:36;;;;;;;11.80;6.88;;;9.30;99.90;;;;;;5053282;28;20387;-68
2021/08/25 03:15:06;;;;;;;10.35;6.90;;;9.30;99.90;;;;;;5052089;28;20078;-68
2021/08/25 03:17:31;;;;;;;11.35;6.47;;;9.30;99.90;;;;;;5052234;28;20028;-68
2021/08/25 03:19:57;;;;;;;8.98;5.95;;;9.30;99.90;;;;;;5053514;28;20021;-68
2021/08/25 03:22:22;;;;;;;13.52;7.25;;;9.30;99.90;;;;;;5053176;28;20025;-68
2021/08/25 03:24:48;;;;;;;11.48;6.47;;;9.30;99.90;;;;;;5055482;28;20371;-67
2021/08/25 03:27:14;;;;;;;11.48;7.13;;;9.30;99.90;;;;;;5056962;28;20091;-68
2021/08/25 03:29:40;;;;;;;11.55;6.97;;;9.30;99.90;;;;;;5057189;28;20422;-68
2021/08/25 03:32:05;;;;;;;10.63;6.97;;;9.30;99.90;;;;;;5056885;28;20029;-68
2021/08/25 03:34:31;;;;;;;12.40;6.90;;;9.30;99.90;;;;;;5057102;28;20025;-68
2021/08/25 03:36:56;;;;;;;13.05;7.57;;;9.30;99.90;;;;;;5056208;28;20080;-68
2021/08/25 03:39:22;;;;;;;13.45;8.30;;;9.30;99.90;;;;;;5057048;28;20031;-68
2021/08/25 03:41:48;;;;;;;12.85;7.60;;;9.20;99.90;;;;;;5057022;28;20454;-68
2021/08/25 03:44:13;;;;;;;12.65;8.18;;;9.20;99.90;;;;;;5055502;28;20029;-68
2021/08/25 03:46:39;;;;;;;13.02;7.63;;;9.20;99.90;;;;;;5056636;28;20025;-68
2021/08/25 03:49:04;;;;;;;14.27;8.50;;;9.20;99.90;;;;;;5056579;28;20040;-71
2021/08/25 03:51:30;;;;;;;13.15;8.65;;;9.20;99.90;;;;;;5056281;28;20087;-68
2021/08/25 03:53:55;;;;;;;13.48;8.57;;;9.20;99.90;;;;;;5056746;28;20079;-68
2021/08/25 03:56:21;;;;;;;12.20;8.43;;;9.20;99.90;;;;;;5056717;28;20032;-68
2021/08/25 03:58:46;;;;;;;12.57;8.52;;;9.10;99.90;;;;;;5056286;28;20025;-68
2021/08/25 04:01:12;;;;;;;14.60;8.52;;;9.10;99.90;;;;;;5056615;28;20049;-68
2021/08/25 04:03:38;;;;;;;13.52;8.10;;;9.10;99.90;;;;;;5056322;28;20060;-68
2021/08/25 04:06:04;;;;;;;14.63;8.57;;;9.10;99.90;;;;;;5056278;28;20028;-68
2021/08/25 04:08:29;;;;;;;18.10;11.65;;;9.10;99.90;;;;;;5056509;28;20083;-68
2021/08/25 04:10:55;;;;;;;16.17;11.43;;;9.10;99.90;;;;;;5056174;28;20025;-68
2021/08/25 04:13:21;;;;;;;18.88;11.65;;;9.10;99.90;;;;;;5055187;28;20029;-68
2021/08/25 04:15:46;;;;;;;16.58;10.80;;;9.10;99.90;;;;;;5056622;28;20048;-68
2021/08/25 04:18:12;;;;;;;14.15;10.07;;;9.00;99.90;;;;;;5055232;28;20447;-68
2021/08/25 04:20:37;;;;;;;17.33;10.48;;;9.00;99.90;;;;;;5056252;28;20021;-68
2021/08/25 04:23:03;;;;;;;19.33;12.05;;;9.10;99.90;;;;;;5056215;28;20383;-68
2021/08/25 04:25:29;;;;;;;18.73;10.88;;;9.10;99.90;;;;;;5056167;28;20094;-68
2021/08/25 04:27:54;;;;;;;16.75;10.93;;;9.10;99.90;;;;;;5054958;28;20362;-68
2021/08/25 04:30:20;;;;;;;15.93;10.32;;;9.10;99.90;;;;;;5055608;28;20033;-68
2021/08/25 04:32:45;;;;;;;17.15;10.30;;;9.10;99.90;;;;;;5056024;28;20082;-68
2021/08/25 04:35:11;;;;;;;16.50;11.20;;;9.10;99.90;;;;;;5055609;28;20025;-68
2021/08/25 04:37:36;;;;;;;14.63;10.10;;;9.10;99.90;;;;;;5053800;28;20399;-68
2021/08/25 04:40:02;;;;;;;19.02;12.30;;;9.10;99.90;;;;;;5054486;28;20025;-68
2021/08/25 04:42:28;;;;;;;17.98;12.10;;;9.10;99.90;;;;;;5054399;28;20485;-68
2021/08/25 04:44:54;;;;;;;20.98;13.70;;;9.20;99.90;;;;;;5055822;28;20032;-68
2021/08/25 04:47:19;;;;;;;22.45;14.75;;;9.20;99.90;;;;;;5055480;28;20029;-68
2021/08/25 04:49:45;;;;;;;22.42;14.02;;;9.30;99.90;;;;;;5055706;28;20079;-68
2021/08/25 04:52:10;;;;;;;28.92;17.25;;;9.30;99.90;;;;;;5054482;28;20080;-68
2021/08/25 04:54:36;;;;;;;23.52;15.23;;;9.40;99.90;;;;;;5054649;28;20036;-68
2021/08/25 04:57:01;;;;;;;23.50;15.43;;;9.40;99.90;;;;;;5055259;28;20061;-67
2021/08/25 04:59:27;;;;;;;22.55;14.48;;;9.50;99.90;;;;;;5055491;28;20467;-68
2021/08/25 05:01:52;;;;;;;21.52;14.60;;;9.50;99.90;;;;;;5055178;28;20096;-68
2021/08/25 05:04:18;;;;;;;18.25;12.95;;;9.60;99.90;;;;;;5055388;28;20041;-67
2021/08/25 05:06:43;;;;;;;17.77;12.60;;;9.70;99.90;;;;;;5055074;28;20070;-67
2021/08/25 05:09:09;;;;;;;17.17;12.98;;;9.70;99.90;;;;;;5055306;28;20052;-68
2021/08/25 05:11:35;;;;;;;18.85;12.73;;;9.80;99.90;;;;;;5054998;28;20096;-68
2021/08/25 05:14:00;;;;;;;21.17;12.82;;;9.90;99.90;;;;;;5054981;28;20442;-68
2021/08/25 05:16:25;;;;;;;15.68;11.48;;;9.90;99.90;;;;;;5054908;28;20021;-68
2021/08/25 05:18:51;;;;;;;20.02;12.02;;;10.00;99.90;;;;;;5053664;28;20486;-67
2021/08/25 05:21:17;;;;;;;21.23;11.60;;;10.10;99.90;;;;;;5054570;28;20075;-68
2021/08/25 05:23:42;;;;;;;17.58;10.48;;;10.20;99.90;;;;;;5054757;28;20048;-68
2021/08/25 05:26:08;;;;;;;17.83;10.32;;;10.40;99.90;;;;;;5053586;28;20031;-68
2021/08/25 05:28:34;;;;;;;15.50;10.77;;;10.50;99.90;;;;;;5054387;28;20029;-68
2021/08/25 05:31:00;;;;;;;15.10;9.27;;;10.60;99.90;;;;;;5053809;28;20033;-68
2021/08/25 05:33:25;;;;;;;16.35;9.60;;;10.70;99.90;;;;;;5054923;28;20351;-68
2021/08/25 05:35:51;;;;;;;13.48;9.20;;;10.80;99.90;;;;;;5054832;28;20021;-68
2021/08/25 05:38:17;;;;;;;13.20;8.65;;;10.90;99.90;;;;;;5054147;28;20559;-68
2021/08/25 05:40:42;;;;;;;16.20;8.38;;;11.00;99.90;;;;;;5054420;28;20032;-68
2021/08/25 05:43:08;;;;;;;13.18;8.75;;;11.20;99.90;;;;;;5054140;28;20029;-68
2021/08/25 05:45:33;;;;;;;13.73;8.50;;;11.50;99.90;;;;;;5054654;28;20036;-68
2021/08/25 05:47:59;;;;;;;13.63;7.35;;;12.00;99.90;;;;;;5054107;28;20029;-68
2021/08/25 05:50:25;;;;;;;10.40;6.50;;;12.80;99.90;;;;;;5054260;28;20094;-69
2021/08/25 05:52:52;;;;;;;12.50;6.28;;;13.50;99.90;;;;;;5053112;28;20044;-69
2021/08/25 05:55:17;;;;;;;10.00;5.47;;;14.50;99.90;;;;;;5052723;28;20029;-69
2021/08/25 05:57:46;;;;;;;11.55;6.03;;;15.40;99.90;;;;;;5054363;28;20120;-69
2021/08/25 06:00:14;;;;;;;8.23;5.20;;;16.20;99.90;;;;;;5054307;28;20048;-69
2021/08/25 06:02:41;;;;;;;9.30;5.60;;;16.90;99.90;;;;;;5053689;28;20021;-69
2021/08/25 06:05:07;;;;;;;9.65;5.90;;;17.50;99.90;;;;;;5052912;28;20025;-69
2021/08/25 06:07:33;;;;;;;9.10;5.22;;;17.70;99.90;;;;;;5053236;28;20033;-69
2021/08/25 06:09:59;;;;;;;11.35;6.35;;;18.50;99.90;;;;;;5052769;28;20471;-69
2021/08/25 06:12:25;;;;;;;8.65;5.95;;;18.10;99.90;;;;;;5053797;28;20029;-69
2021/08/25 06:14:51;;;;;;;13.75;6.13;;;17.60;99.90;;;;;;5053126;28;20037;-69
2021/08/25 06:17:37;;;;;;;11.98;6.53;;;17.60;99.90;;;;;;5054871;28;20025;-69
2021/08/25 06:20:04;;;;;;;13.10;7.00;;;17.70;99.90;;;;;;5055640;28;20029;-69
2021/08/25 06:22:31;;;;;;;15.77;7.13;;;17.90;99.90;;;;;;5055278;28;20024;-68
2021/08/25 06:24:57;;;;;;;10.43;6.68;;;18.80;99.90;;;;;;5052954;28;20474;-69
2021/08/25 06:27:24;;;;;;;10.43;7.20;;;18.40;99.90;;;;;;5053526;28;20060;-69
2021/08/25 06:29:49;;;;;;;12.50;7.43;;;18.20;99.90;;;;;;5052369;28;20466;-69
2021/08/25 06:32:15;;;;;;;15.48;6.88;;;18.20;99.90;;;;;;5052962;28;20029;-69
2021/08/25 06:34:41;;;;;;;17.48;7.97;;;18.90;99.90;;;;;;5054332;28;20021;-69
2021/08/25 06:37:13;;;;;;;12.68;7.57;;;18.80;99.90;;;;;;5053679;28;20059;-68
2021/08/25 06:39:38;;;;;;;16.27;8.50;;;19.20;99.90;;;;;;5026082;28;20037;-68
2021/08/25 06:42:04;;;;;;;15.55;7.38;;;19.60;99.90;;;;;;5043273;28;20037;-67
2021/08/25 06:44:29;;;;;;;13.88;7.95;;;20.20;99.90;;;;;;5049501;28;20021;-68
2021/08/25 06:46:58;;;;;;;14.55;7.57;;;20.10;99.90;;;;;;5051414;28;20040;-69
2021/08/25 06:49:23;;;;;;;13.57;8.52;;;20.00;99.90;;;;;;5051012;28;20021;-68
2021/08/25 06:51:49;;;;;;;13.65;8.80;;;19.80;99.90;;;;;;5052888;28;20025;-68
2021/08/25 06:54:15;;;;;;;18.55;8.85;;;19.70;99.90;;;;;;5049212;28;20060;-68
2021/08/25 06:56:40;;;;;;;19.60;8.98;;;19.60;99.90;;;;;;5043519;28;20482;-68
2021/08/25 06:59:06;;;;;;;18.98;8.82;;;19.10;99.90;;;;;;5044195;28;20082;-68
2021/08/25 07:01:31;;;;;;;16.67;8.20;;;19.10;99.90;;;;;;5055895;28;20033;-68
2021/08/25 07:03:57;;;;;;;14.07;8.70;;;19.60;99.90;;;;;;5053882;28;20033;-68
2021/08/25 07:06:22;;;;;;;18.33;8.43;;;19.80;99.90;;;;;;5056139;28;20033;-68
2021/08/25 07:08:48;;;;;;;20.88;8.38;;;20.50;99.90;;;;;;5039175;28;20032;-68
2021/08/25 07:11:35;;;;;;;21.08;7.97;;;20.70;99.90;;;;;;5048056;28;20025;-68
2021/08/25 07:14:01;;;;;;;18.02;8.00;;;21.50;99.90;;;;;;5040824;28;20029;-69
2021/08/25 07:16:27;;;;;;;18.17;8.38;;;22.00;99.90;;;;;;5046390;28;20039;-69
2021/08/25 07:18:53;;;;;;;16.55;7.50;;;21.70;99.90;;;;;;5044025;28;20033;-70
2021/08/25 07:21:18;;;;;;;11.48;7.60;;;21.70;99.90;;;;;;5040120;28;20070;-70
2021/08/25 07:23:50;;;;;;;10.32;7.10;;;22.20;99.90;;;;;;5056200;28;20094;-69
2021/08/25 07:26:16;;;;;;;14.98;8.32;;;22.20;99.90;;;;;;5051798;28;20033;-69
2021/08/25 07:28:44;;;;;;;14.23;8.18;;;22.40;99.90;;;;;;5054755;28;20021;-69
2021/08/25 07:31:13;;;;;;;14.45;8.07;;;21.90;99.90;;;;;;5054199;28;20021;-70
2021/08/25 07:33:39;;;;;;;11.13;7.53;;;22.00;99.90;;;;;;5051979;28;20017;-69
2021/08/25 07:36:05;;;;;;;14.65;8.45;;;21.80;99.90;;;;;;5054273;28;20021;-69
2021/08/25 07:38:31;;;;;;;15.38;8.30;;;21.60;99.90;;;;;;5018938;28;20052;-69
2021/08/25 07:40:56;;;;;;;12.60;8.13;;;22.00;99.90;;;;;;5037272;28;20029;-69
2021/08/25 07:43:22;;;;;;;13.18;7.07;;;22.70;99.90;;;;;;5037348;28;20438;-69
2021/08/25 07:45:48;;;;;;;14.60;8.57;;;23.10;99.90;;;;;;5054152;28;20021;-69
2021/08/25 07:48:14;;;;;;;14.82;7.93;;;22.80;99.90;;;;;;5037641;28;20029;-69
2021/08/25 07:50:40;;;;;;;13.05;7.72;;;24.00;99.90;;;;;;5046571;28;20553;-69
2021/08/25 07:53:05;;;;;;;10.98;6.53;;;24.80;99.90;;;;;;5055653;28;20024;-69
2021/08/25 07:55:31;;;;;;;12.07;6.18;;;25.00;99.90;;;;;;5051834;28;20025;-69
2021/08/25 07:57:56;;;;;;;9.77;5.32;;;25.40;99.90;;;;;;5042663;28;20433;-69
2021/08/25 08:00:22;;;;;;;9.20;6.63;;;25.60;98.80;;;;;;5051971;28;20033;-70
2021/08/25 08:02:48;;;;;;;10.45;6.13;;;25.20;98.70;;;;;;5034738;28;20026;-69
2021/08/25 08:05:13;;;;;;;10.02;6.05;;;26.00;97.00;;;;;;5052584;28;20029;-69
2021/08/25 08:07:39;;;;;;;9.27;6.60;;;26.20;96.90;;;;;;5056518;28;20494;-69
2021/08/25 08:10:05;;;;;;;9.68;6.05;;;26.20;97.10;;;;;;5054823;28;20079;-69
2021/08/25 08:12:31;;;;;;;13.48;6.40;;;25.40;97.50;;;;;;5053251;28;20028;-69
2021/08/25 08:14:56;;;;;;;10.43;6.30;;;25.10;98.50;;;;;;5053338;28;20048;-69
2021/08/25 08:17:22;;;;;;;11.23;6.93;;;24.80;99.30;;;;;;5055494;28;20056;-69
2021/08/25 08:19:49;;;;;;;7.75;5.63;;;24.60;98.80;;;;;;5055003;28;20021;-69
2021/08/25 08:22:15;;;;;;;9.15;6.70;;;24.90;99.90;;;;;;5053008;28;20033;-69
2021/08/25 08:24:40;;;;;;;11.10;6.80;;;25.70;97.90;;;;;;5054937;28;20024;-69
2021/08/25 08:27:06;;;;;;;8.18;6.25;;;24.90;97.80;;;;;;5052873;28;20024;-69
2021/08/25 08:29:35;;;;;;;10.38;6.72;;;24.90;98.00;;;;;;5054113;28;20437;-69
2021/08/25 08:32:01;;;;;;;8.52;6.50;;;24.80;99.10;;;;;;5046404;28;20017;-69
2021/08/25 08:34:26;;;;;;;10.75;6.30;;;24.80;99.80;;;;;;5054554;28;20039;-69
2021/08/25 08:36:55;;;;;;;11.98;6.60;;;24.50;99.40;;;;;;5045734;28;20067;-70
2021/08/25 08:39:20;;;;;;;9.27;5.80;;;25.00;98.70;;;;;;5053124;28;20029;-69
2021/08/25 08:41:46;;;;;;;8.40;6.10;;;24.50;98.90;;;;;;5047177;28;20021;-69
2021/08/25 08:44:17;;;;;;;10.88;5.63;;;24.30;99.10;;;;;;5054441;28;20359;-69
2021/08/25 08:46:43;;;;;;;11.48;7.38;;;23.80;99.00;;;;;;5054026;28;20024;-69
2021/08/25 08:49:10;;;;;;;9.52;6.38;;;23.10;99.90;;;;;;5054834;28;20106;-69
2021/08/25 08:51:38;;;;;;;9.48;6.18;;;22.70;99.90;;;;;;5041557;28;20076;-69
2021/08/25 08:54:04;;;;;;;12.25;6.00;;;22.70;99.90;;;;;;5047655;28;20056;-69
2021/08/25 08:56:29;;;;;;;10.68;6.00;;;23.00;99.90;;;;;;5053853;28;20060;-69
2021/08/25 08:58:56;;;;;;;14.00;6.38;;;23.00;99.90;;;;;;5035203;28;20036;-69
2021/08/25 09:01:23;;;;;;;9.40;6.22;;;22.70;99.90;;;;;;5050006;28;20057;-69
2021/08/25 09:03:48;;;;;;;9.00;6.30;;;22.50;99.90;;;;;;5044464;28;20050;-69
2021/08/25 09:06:14;;;;;;;8.35;5.80;;;22.40;99.90;;;;;;5017560;28;20486;-69
2021/08/25 09:08:40;;;;;;;12.27;6.50;;;22.40;99.90;;;;;;5037963;28;20032;-69
2021/08/25 09:11:15;;;;;;;8.68;5.40;;;21.80;99.90;;;;;;5040804;28;20036;-69
2021/08/25 09:13:47;;;;;;;10.52;5.75;;;21.40;99.90;;;;;;5042761;28;20120;-69
2021/08/25 09:16:34;;;;;;;7.90;5.45;;;21.50;99.90;;;;;;5049288;28;20112;-70
2021/08/25 09:19:09;;;;;;;8.95;5.85;;;21.90;99.90;;;;;;5042998;28;20049;-70
2021/08/25 09:21:38;;;;;;;9.23;5.55;;;22.30;99.90;;;;;;5033125;28;20030;-69
2021/08/25 09:24:05;;;;;;;10.48;5.43;;;22.80;99.90;;;;;;5045908;28;20027;-69
2021/08/25 09:26:31;;;;;;;10.65;5.72;;;23.30;99.90;;;;;;5051525;28;20106;-69
2021/08/25 09:29:18;;;;;;;10.32;5.68;;;23.70;99.90;;;;;;5039336;28;20025;-69
2021/08/25 09:31:45;;;;;;;8.95;5.47;;;24.20;99.90;;;;;;5036683;28;20024;-69
2021/08/25 09:34:29;;;;;;;7.95;4.70;;;25.30;99.90;;;;;;5051899;28;20056;-69
2021/08/25 09:37:14;;;;;;;7.57;4.80;;;25.50;99.60;;;;;;5053350;28;20397;-70
2021/08/25 09:39:45;;;;;;;7.15;5.20;;;26.30;97.90;;;;;;5053642;28;20048;-70
2021/08/25 09:42:12;;;;;;;7.50;4.50;;;27.00;95.70;;;;;;5036126;28;20025;-70
2021/08/25 09:44:38;;;;;;;8.80;4.50;;;26.60;96.80;;;;;;5048433;28;20090;-69
2021/08/25 09:47:04;;;;;;;7.68;4.15;;;26.40;96.80;;;;;;5034839;28;20371;-70
2021/08/25 09:49:30;;;;;;;7.43;4.78;;;26.40;96.60;;;;;;5033701;28;20040;-69
2021/08/25 09:51:55;;;;;;;7.32;4.78;;;25.90;95.90;;;;;;5052092;28;20031;-70
2021/08/25 09:54:22;;;;;;;7.68;4.68;;;24.80;95.30;;;;;;5035875;28;20116;-70
2021/08/25 09:56:53;;;;;;;7.10;4.38;;;25.30;97.70;;;;;;5054551;28;20021;-70
2021/08/25 09:59:19;;;;;;;9.95;4.30;;;25.50;96.20;;;;;;5052044;28;20051;-70
2021/08/25 10:01:46;;;;;;;7.97;3.95;;;26.70;95.50;;;;;;5052063;28;20021;-70
2021/08/25 10:04:14;;;;;;;8.27;3.92;;;26.80;93.70;;;;;;5045353;28;20083;-69
2021/08/25 10:06:43;;;;;;;5.60;3.88;;;26.80;92.10;;;;;;5038633;28;20501;-70
2021/08/25 10:09:10;;;;;;;5.60;3.80;;;27.30;92.10;;;;;;5040096;28;20375;-68
2021/08/25 10:11:39;;;;;;;5.25;4.00;;;27.70;92.00;;;;;;5047498;28;20040;-68
2021/08/25 10:14:08;;;;;;;4.18;3.72;;;27.50;90.60;;;;;;5051105;28;20044;-68
2021/08/25 10:16:39;;;;;;;5.82;3.78;;;27.00;90.60;;;;;;5053582;28;20041;-68
2021/08/25 10:19:40;;;;;;;5.55;3.90;;;26.80;92.70;;;;;;5034102;28;20057;-68
2021/08/25 10:27:33;;;;;;;6.57;4.20;;;26.60;92.90;;;;;;5110280;27;20427;-67
2021/08/25 10:35:41;;;;;;;6.65;4.47;;;26.50;90.60;;;;;;5094489;27;20318;-69
2021/08/25 10:38:40;;;;;;;6.82;3.97;;;26.80;91.00;;;;;;5091721;28;20478;-69
2021/08/25 10:41:22;;;;;;;8.27;4.15;;;26.80;90.90;;;;;;5084610;28;20322;-68
2021/08/25 10:43:48;;;;;;;5.15;4.32;;;26.70;89.30;;;;;;5096378;28;20501;-68
2021/08/25 10:46:14;;;;;;;9.95;4.68;;;26.00;90.40;;;;;;5070017;28;20029;-68
2021/08/25 10:48:56;;;;;;;9.52;4.65;;;26.10;88.80;;;;;;5074445;28;20024;-68
2021/08/25 10:51:33;;;;;;;5.72;4.30;;;26.20;91.10;;;;;;5090182;28;20052;-68
2021/08/25 10:54:00;;;;;;;6.53;4.18;;;26.50;90.10;;;;;;5087325;28;20028;-68
2021/08/25 10:56:32;;;;;;;7.32;4.88;;;26.40;90.40;;;;;;5089197;28;20036;-67
2021/08/25 10:59:03;;;;;;;5.68;3.97;;;26.00;90.60;;;;;;5094749;28;20020;-67
2021/08/25 11:01:37;;;;;;;7.00;4.78;;;26.00;91.80;;;;;;5090297;28;20066;-67
2021/08/25 11:04:07;;;;;;;7.43;4.28;;;25.80;92.00;;;;;;5090257;28;20024;-67
2021/08/25 11:06:39;;;;;;;7.68;4.72;;;26.00;92.50;;;;;;5089268;28;20024;-68
2021/08/25 11:09:11;;;;;;;7.70;4.63;;;25.80;91.80;;;;;;5089979;28;20551;-67
2021/08/25 11:11:36;;;;;;;6.70;4.85;;;25.10;91.00;;;;;;5088384;28;20505;-67
2021/08/25 11:14:02;;;;;;;7.53;4.65;;;24.30;92.20;;;;;;5089716;28;20035;-67
2021/08/25 11:16:27;;;;;;;7.05;4.82;;;24.60;92.90;;;;;;5089914;28;20054;-67
2021/08/25 11:18:53;;;;;;;7.53;4.95;;;24.90;92.80;;;;;;5088541;28;20024;-67
2021/08/25 11:21:18;;;;;;;10.52;4.18;;;25.40;91.70;;;;;;5088388;28;20025;-67
2021/08/25 11:23:56;;;;;;;7.90;4.97;;;25.30;91.60;;;;;;5085586;28;20035;-66
2021/08/25 11:26:22;;;;;;;7.38;4.80;;;24.50;91.80;;;;;;5081092;28;20039;-67
2021/08/25 11:28:47;;;;;;;11.45;4.78;;;24.40;92.40;;;;;;5087927;28;20024;-67
2021/08/25 11:31:24;;;;;;;6.38;4.65;;;24.40;94.00;;;;;;5073804;28;20501;-67
2021/08/25 11:33:49;;;;;;;7.95;4.50;;;24.30;93.40;;;;;;5089550;28;20139;-66
2021/08/25 11:36:15;;;;;;;6.45;4.25;;;24.80;92.30;;;;;;5075273;28;20078;-67
2021/08/25 11:38:41;;;;;;;8.93;5.65;;;24.60;93.00;;;;;;5094515;28;20025;-67
2021/08/25 11:41:06;;;;;;;7.30;4.25;;;24.90;94.00;;;;;;5078024;28;20033;-66
2021/08/25 11:43:34;;;;;;;8.05;4.93;;;24.60;93.80;;;;;;5077366;28;20020;-66
2021/08/25 11:46:00;;;;;;;7.45;4.15;;;24.60;92.20;;;;;;5063941;28;20021;-67
2021/08/25 11:48:27;;;;;;;6.28;4.25;;;24.10;92.30;;;;;;5056828;28;20021;-67
2021/08/25 11:50:53;;;;;;;7.28;4.22;;;24.10;92.00;;;;;;5054684;28;20036;-67
2021/08/25 11:53:21;;;;;;;10.80;5.25;;;24.40;93.10;;;;;;5084333;28;20017;-67
2021/08/25 11:55:49;;;;;;;8.88;4.10;;;25.00;93.50;;;;;;5078053;28;20025;-67
2021/08/25 11:58:37;;;;;;;7.03;4.50;;;25.40;92.50;;;;;;5074315;28;20504;-67
2021/08/25 12:01:04;;;;;;;5.30;4.28;;;25.10;90.80;;;;;;5070168;28;20386;-66
2021/08/25 12:03:45;;;;;;;7.80;4.70;;;25.20;90.50;;;;;;5076277;28;20023;-67
2021/08/25 12:06:14;;;;;;;7.30;5.05;;;25.20;92.30;;;;;;5089655;28;20020;-67
2021/08/25 12:08:42;;;;;;;7.75;4.90;;;25.40;92.80;;;;;;5078464;28;20024;-67
2021/08/25 12:11:10;;;;;;;6.20;3.78;;;25.10;93.00;;;;;;5080445;28;20044;-67
2021/08/25 12:13:38;;;;;;;7.63;5.20;;;25.00;94.10;;;;;;5074022;28;20077;-67
2021/08/25 12:16:10;;;;;;;6.40;4.55;;;25.40;93.20;;;;;;5073740;28;20013;-67
2021/08/25 12:18:57;;;;;;;7.85;4.82;;;25.50;93.60;;;;;;5057679;28;20087;-67
2021/08/25 12:21:28;;;;;;;7.22;4.47;;;25.20;92.90;;;;;;5067767;28;20074;-67
2021/08/25 12:23:56;;;;;;;9.68;4.40;;;25.10;93.30;;;;;;5080948;28;20017;-67
2021/08/25 12:26:22;;;;;;;5.40;4.15;;;25.10;93.50;;;;;;5066635;28;20017;-68
2021/08/25 12:28:47;;;;;;;9.43;4.30;;;25.00;93.00;;;;;;5077341;28;20381;-67
2021/08/25 12:31:17;;;;;;;7.13;4.15;;;24.80;92.90;;;;;;5062759;28;20028;-67
2021/08/25 12:33:44;;;;;;;9.20;4.40;;;24.80;93.70;;;;;;5060070;28;20049;-67
2021/08/25 12:36:29;;;;;;;6.93;4.03;;;24.90;93.10;;;;;;5055512;28;20029;-67
2021/08/25 12:39:09;;;;;;;6.43;4.63;;;25.30;93.70;;;;;;5078274;28;20024;-67
2021/08/25 12:41:36;;;;;;;8.05;4.65;;;24.20;92.70;;;;;;5064535;28;20024;-67
2021/08/25 12:44:02;;;;;;;5.82;4.18;;;24.30;94.20;;;;;;5069435;28;20021;-66
2021/08/25 12:46:28;;;;;;;7.22;4.93;;;24.40;94.40;;;;;;5067641;28;20035;-67
2021/08/25 12:48:53;;;;;;;6.55;4.15;;;24.30;93.10;;;;;;5068702;28;20025;-67
2021/08/25 12:51:19;;;;;;;8.15;5.05;;;24.40;93.30;;;;;;5064711;28;20024;-67
2021/08/25 12:53:47;;;;;;;7.47;3.97;;;24.50;93.00;;;;;;5072996;28;20032;-67
2021/08/25 12:56:12;;;;;;;6.88;3.90;;;24.50;93.10;;;;;;5066544;28;20350;-67